Time;durP1;ratioP1;P1;durP2;ratioP2;P2;SDS_P1;SDS_P2;PMS_P1;PMS_P2;Temp;Humidity;BMP_temperature;BMP_pressure;BME280_temperature;BME280_humidity;BME280_pressure;Samples;Min_cycle;Max_cycle;Signal;HPM_P1;HPM_P2
2023/01/03 00:01:14;;;;;;;6.65;2.95;;;0.00;95.40;;;;;;5092270;28;20031;-80
2023/01/03 00:03:40;;;;;;;2.60;2.08;;;0.00;95.50;;;;;;5085781;28;20453;-80
2023/01/03 00:06:15;;;;;;;8.93;2.67;;;0.00;95.40;;;;;;5094690;28;20025;-81
2023/01/03 00:08:41;;;;;;;4.93;2.55;;;0.00;95.40;;;;;;5095013;28;20035;-80
2023/01/03 00:11:16;;;;;;;7.03;2.63;;;0.00;95.40;;;;;;5094798;28;20028;-80
2023/01/03 00:13:43;;;;;;;5.05;2.78;;;0.00;95.50;;;;;;5094597;28;20103;-81
2023/01/03 00:16:19;;;;;;;6.25;2.95;;;0.00;95.50;;;;;;5097363;28;20028;-80
2023/01/03 00:18:45;;;;;;;3.58;2.10;;;0.10;95.50;;;;;;5099751;28;20099;-79
2023/01/03 00:21:11;;;;;;;8.98;3.33;;;0.10;95.40;;;;;;5093428;28;20024;-80
2023/01/03 00:23:37;;;;;;;5.57;3.08;;;0.10;95.40;;;;;;5094662;28;20024;-79
2023/01/03 00:26:14;;;;;;;4.55;2.28;;;0.10;95.40;;;;;;5094149;28;20108;-80
2023/01/03 00:28:41;;;;;;;2.42;1.88;;;0.20;95.30;;;;;;5094091;28;20103;-80
2023/01/03 00:31:08;;;;;;;6.10;2.47;;;0.10;95.30;;;;;;5094234;28;20034;-81
2023/01/03 00:33:35;;;;;;;;;;;0.20;95.30;;;;;;5093333;28;20020;-80
2023/01/03 00:36:02;;;;;;;5.75;2.50;;;0.20;95.40;;;;;;5094812;28;19907;-80
2023/01/03 00:38:28;;;;;;;6.72;2.85;;;0.20;95.20;;;;;;5094709;28;20028;-80
2023/01/03 00:40:54;;;;;;;5.05;3.80;;;0.20;95.20;;;;;;5092908;28;20028;-81
2023/01/03 00:43:28;;;;;;;5.55;3.55;;;0.20;95.20;;;;;;5093945;28;20394;-80
2023/01/03 00:45:54;;;;;;;7.70;4.75;;;0.20;95.20;;;;;;5093922;28;20107;-80
2023/01/03 00:48:20;;;;;;;8.80;5.18;;;0.20;95.00;;;;;;5093702;28;20453;-78
2023/01/03 00:50:46;;;;;;;9.15;6.03;;;0.20;95.00;;;;;;5093796;28;20028;-80
2023/01/03 00:53:12;;;;;;;10.45;5.70;;;0.20;95.20;;;;;;5093935;28;20134;-81
2023/01/03 00:55:38;;;;;;;9.02;5.63;;;0.30;95.00;;;;;;5093726;28;20038;-81
2023/01/03 00:58:04;;;;;;;16.85;6.30;;;0.30;94.90;;;;;;5094196;28;20026;-80
2023/01/03 01:00:29;;;;;;;8.50;5.75;;;0.30;94.90;;;;;;5094340;28;20088;-81
2023/01/03 01:02:55;;;;;;;6.53;3.80;;;0.30;94.90;;;;;;5099609;28;20024;-81
2023/01/03 01:05:21;;;;;;;10.20;4.40;;;0.30;94.80;;;;;;5104599;28;20030;-80
2023/01/03 01:07:47;;;;;;;5.85;4.30;;;0.40;94.70;;;;;;5093523;28;20035;-82
2023/01/03 01:10:13;;;;;;;4.78;3.13;;;0.40;94.80;;;;;;5093811;28;20111;-80
2023/01/03 01:12:39;;;;;;;6.47;2.90;;;0.40;94.70;;;;;;5093240;28;20153;-81
2023/01/03 01:15:05;;;;;;;4.65;3.05;;;0.40;94.60;;;;;;5093456;28;20024;-81
2023/01/03 01:17:31;;;;;;;4.55;2.60;;;0.40;94.60;;;;;;5093372;28;20071;-80
2023/01/03 01:19:57;;;;;;;5.90;2.38;;;0.40;94.50;;;;;;5078891;28;20044;-80
2023/01/03 01:22:23;;;;;;;4.75;2.42;;;0.50;94.50;;;;;;5093323;28;20099;-80
2023/01/03 01:24:48;;;;;;;4.75;2.20;;;0.50;94.50;;;;;;5093303;28;20386;-80
2023/01/03 01:27:14;;;;;;;2.60;1.83;;;0.50;94.40;;;;;;5093059;28;20036;-79
2023/01/03 01:29:40;;;;;;;3.42;1.98;;;0.50;94.40;;;;;;5093649;28;20028;-79
2023/01/03 01:32:06;;;;;;;3.05;1.70;;;0.50;94.30;;;;;;5094336;28;20028;-80
2023/01/03 01:34:32;;;;;;;4.72;2.95;;;0.60;94.20;;;;;;5098192;28;20027;-79
2023/01/03 01:36:58;;;;;;;7.75;1.85;;;0.60;94.20;;;;;;5114169;28;20051;-79
2023/01/03 01:39:26;;;;;;;3.97;2.05;;;0.50;94.10;;;;;;5107951;28;20040;-81
2023/01/03 01:44:55;;;;;;;4.85;2.08;;;0.50;94.00;;;;;;5099374;28;20223;-80
2023/01/03 01:47:53;;;;;;;5.70;1.92;;;0.50;94.00;;;;;;5112245;28;20059;-80
2023/01/03 01:50:37;;;;;;;2.60;1.65;;;0.50;94.10;;;;;;5115539;28;20492;-82
2023/01/03 01:53:11;;;;;;;3.55;1.98;;;0.50;94.00;;;;;;5111376;28;20098;-79
2023/01/03 01:55:42;;;;;;;4.15;2.78;;;0.60;94.00;;;;;;5099054;28;20031;-79
2023/01/03 01:58:08;;;;;;;3.45;2.30;;;0.60;93.90;;;;;;5092565;28;20124;-80
2023/01/03 02:00:36;;;;;;;4.05;2.22;;;0.60;93.90;;;;;;5091246;28;20088;-79
2023/01/03 02:03:02;;;;;;;3.83;2.00;;;0.60;93.90;;;;;;5092909;28;20102;-81
2023/01/03 02:05:31;;;;;;;2.65;1.80;;;0.70;93.90;;;;;;5093089;28;20384;-81
2023/01/03 02:07:58;;;;;;;9.13;2.47;;;0.70;93.70;;;;;;5092553;28;20028;-80
2023/01/03 02:11:15;;;;;;;3.95;1.92;;;0.60;93.60;;;;;;5092314;28;20040;-82
2023/01/03 02:14:04;;;;;;;3.00;2.03;;;0.70;93.80;;;;;;5087333;28;20024;-80
2023/01/03 02:17:07;;;;;;;3.58;2.00;;;0.70;93.70;;;;;;5092381;28;20119;-80
2023/01/03 02:20:06;;;;;;;2.38;1.70;;;0.60;93.60;;;;;;5092808;28;20149;-79
2023/01/03 02:22:56;;;;;;;4.40;2.08;;;0.60;93.70;;;;;;5096321;28;20031;-81
2023/01/03 02:25:43;;;;;;;4.45;1.50;;;0.60;93.60;;;;;;5117199;28;20030;-79
2023/01/03 02:28:34;;;;;;;5.53;2.00;;;0.60;93.50;;;;;;5089552;28;20043;-81
2023/01/03 02:31:24;;;;;;;4.38;2.00;;;0.60;93.50;;;;;;5095251;28;20040;-80
2023/01/03 02:34:16;;;;;;;3.38;1.92;;;0.50;93.50;;;;;;5093143;28;20101;-79
2023/01/03 02:37:19;;;;;;;4.75;1.90;;;0.40;93.50;;;;;;5087587;28;20041;-80
2023/01/03 02:40:22;;;;;;;3.60;1.92;;;0.20;93.70;;;;;;5074270;28;20032;-81
2023/01/03 02:43:25;;;;;;;2.17;1.35;;;0.20;93.80;;;;;;5102271;28;20045;-80
2023/01/03 02:46:28;;;;;;;2.72;1.67;;;0.20;93.80;;;;;;5105237;28;20031;-79
2023/01/03 02:49:13;;;;;;;2.65;1.77;;;0.10;93.60;;;;;;5076220;28;20041;-79
2023/01/03 02:52:16;;;;;;;2.78;1.60;;;0.10;93.70;;;;;;5116547;28;20027;-80
2023/01/03 02:55:19;;;;;;;5.35;2.15;;;0.10;93.80;;;;;;5095770;28;20032;-80
2023/01/03 02:58:22;;;;;;;2.55;1.75;;;0.30;93.80;;;;;;5105189;28;20116;-81
2023/01/03 03:01:25;;;;;;;2.78;1.50;;;0.30;93.70;;;;;;5092225;28;20392;-79
2023/01/03 03:04:28;;;;;;;3.00;1.60;;;0.40;93.60;;;;;;5078965;28;20074;-80
2023/01/03 03:07:31;;;;;;;3.38;1.45;;;0.30;93.80;;;;;;5088229;28;20092;-80
2023/01/03 03:13:56;;;;;;;3.38;1.45;;;-0.10;95.20;;;;;;5077353;28;20047;-80
2023/01/03 03:16:48;;;;;;;5.60;1.90;;;-0.30;96.00;;;;;;5094361;28;20043;-80
2023/01/03 03:26:35;;;;;;;2.65;1.67;;;-0.30;96.90;;;;;;5084134;28;20399;-80
2023/01/03 03:29:38;;;;;;;5.18;2.25;;;-0.30;97.20;;;;;;5097177;28;20380;-79
2023/01/03 03:32:04;;;;;;;5.28;1.58;;;-0.50;97.70;;;;;;5111555;28;20023;-80
2023/01/03 03:35:07;;;;;;;2.92;1.60;;;-0.70;98.40;;;;;;5111691;28;20020;-81
2023/01/03 03:37:54;;;;;;;2.03;1.48;;;-0.80;99.20;;;;;;5112519;28;20024;-80
2023/01/03 03:47:24;;;;;;;4.30;1.70;;;-0.90;99.90;;;;;;5049819;28;20070;-79
2023/01/03 03:50:10;;;;;;;3.33;2.40;;;-0.90;99.90;;;;;;5084918;28;20031;-80
2023/01/03 03:53:14;;;;;;;9.30;1.85;;;-0.90;99.90;;;;;;5110005;28;20023;-80
2023/01/03 03:56:16;;;;;;;3.80;2.00;;;-0.90;99.90;;;;;;5111414;28;20363;-80
2023/01/03 03:59:03;;;;;;;4.10;2.28;;;-0.80;99.90;;;;;;5083054;28;20028;-80
2023/01/03 04:02:07;;;;;;;4.32;2.47;;;-0.70;99.90;;;;;;5106073;28;20012;-79
2023/01/03 04:05:10;;;;;;;4.65;2.75;;;-0.60;99.90;;;;;;5094975;28;20099;-80
2023/01/03 04:08:13;;;;;;;5.15;2.10;;;-0.60;99.90;;;;;;5090929;28;20016;-79
2023/01/03 04:11:16;;;;;;;4.90;2.33;;;-0.50;99.90;;;;;;5082959;28;20042;-78
2023/01/03 04:14:00;;;;;;;3.22;2.25;;;-0.40;99.90;;;;;;5111013;28;20390;-80
2023/01/03 04:17:03;;;;;;;5.28;2.47;;;-0.30;99.90;;;;;;5102506;28;20031;-79
2023/01/03 04:20:06;;;;;;;4.15;2.88;;;-0.30;99.90;;;;;;5092647;28;20470;-81
2023/01/03 04:23:09;;;;;;;4.32;2.65;;;-0.20;99.90;;;;;;5086579;28;20041;-80
2023/01/03 04:26:12;;;;;;;5.53;3.47;;;-0.10;99.90;;;;;;5114546;28;20011;-80
2023/01/03 04:28:57;;;;;;;5.70;3.80;;;-0.10;99.90;;;;;;5114410;28;20031;-80
2023/01/03 04:32:00;;;;;;;6.80;3.70;;;-0.10;99.90;;;;;;5105938;28;20491;-80
2023/01/03 04:35:03;;;;;;;6.65;3.65;;;-0.10;99.90;;;;;;5089579;28;20068;-80
2023/01/03 04:38:06;;;;;;;3.95;3.20;;;-0.10;99.90;;;;;;5119856;28;20024;-82
2023/01/03 04:41:09;;;;;;;6.90;3.78;;;-0.20;99.90;;;;;;5113296;28;20350;-80
2023/01/03 04:44:12;;;;;;;7.20;4.10;;;-0.20;99.90;;;;;;5114484;28;20026;-81
2023/01/03 04:46:57;;;;;;;9.40;5.82;;;-0.20;99.90;;;;;;5082401;28;20024;-80
2023/01/03 04:50:00;;;;;;;12.13;6.00;;;-0.20;99.90;;;;;;5108436;28;20121;-80
2023/01/03 04:53:03;;;;;;;9.70;5.35;;;-0.10;99.90;;;;;;5112674;28;20107;-80
2023/01/03 04:56:06;;;;;;;8.63;4.88;;;-0.10;99.90;;;;;;5117418;28;20025;-82
2023/01/03 04:59:10;;;;;;;12.00;5.75;;;-0.10;99.90;;;;;;5084128;28;20016;-81
2023/01/03 05:01:54;;;;;;;8.85;5.18;;;-0.10;99.90;;;;;;5113636;28;20019;-80
2023/01/03 05:04:57;;;;;;;6.93;4.72;;;-0.10;99.90;;;;;;5098587;28;20067;-81
2023/01/03 05:07:42;;;;;;;7.18;4.75;;;-0.10;99.90;;;;;;5093845;28;20456;-79
2023/01/03 05:10:45;;;;;;;9.32;5.93;;;-0.10;99.90;;;;;;5110332;28;20035;-79
2023/01/03 05:13:48;;;;;;;8.07;5.03;;;-0.10;99.90;;;;;;5114156;28;20024;-81
2023/01/03 05:16:51;;;;;;;11.77;6.75;;;0.00;99.90;;;;;;5093865;28;20028;-80
2023/01/03 05:26:02;;;;;;;11.07;6.38;;;-0.10;99.90;;;;;;5113373;28;20077;-79
2023/01/03 05:29:05;;;;;;;11.82;7.65;;;0.00;99.90;;;;;;5113931;28;20460;-80
2023/01/03 05:32:08;;;;;;;11.45;9.13;;;0.00;99.90;;;;;;5093210;28;20084;-81
2023/01/03 05:34:53;;;;;;;11.13;7.82;;;0.00;99.90;;;;;;5087477;28;20024;-80
2023/01/03 05:37:56;;;;;;;12.27;7.78;;;0.00;99.90;;;;;;5113601;28;20028;-79
2023/01/03 05:40:59;;;;;;;12.07;7.13;;;0.00;99.90;;;;;;5114481;28;20024;-81
2023/01/03 05:43:44;;;;;;;14.85;7.68;;;0.10;99.90;;;;;;5093539;28;20099;-80
2023/01/03 05:46:47;;;;;;;16.55;9.93;;;0.10;99.90;;;;;;5113271;28;20026;-81
2023/01/03 05:49:50;;;;;;;13.88;8.73;;;0.10;99.90;;;;;;5113318;28;20057;-80
2023/01/03 05:52:53;;;;;;;11.77;7.63;;;0.10;99.90;;;;;;5113377;28;20029;-80
2023/01/03 05:55:57;;;;;;;14.35;8.57;;;0.10;99.90;;;;;;5093092;28;20495;-80
2023/01/03 05:59:00;;;;;;;10.32;6.18;;;0.00;99.90;;;;;;5078402;28;20499;-80
2023/01/03 06:02:03;;;;;;;12.45;7.50;;;0.10;99.90;;;;;;5106037;28;20150;-79
2023/01/03 06:05:06;;;;;;;16.55;8.88;;;0.00;99.90;;;;;;5098563;28;20059;-81
2023/01/03 06:08:09;;;;;;;12.82;7.50;;;0.00;99.90;;;;;;5085875;28;20043;-82
2023/01/03 06:11:12;;;;;;;8.40;6.68;;;0.00;99.90;;;;;;5110685;28;20031;-81
2023/01/03 06:13:56;;;;;;;14.00;7.15;;;0.00;99.90;;;;;;5072575;28;20024;-80
2023/01/03 06:20:03;;;;;;;7.47;5.60;;;0.00;99.90;;;;;;5074552;28;20140;-80
2023/01/03 06:23:06;;;;;;;11.48;5.50;;;0.00;99.90;;;;;;5117159;28;20031;-80
2023/01/03 06:26:09;;;;;;;6.80;4.72;;;0.00;99.90;;;;;;5097826;28;20027;-82
2023/01/03 06:29:12;;;;;;;8.32;5.28;;;0.00;99.90;;;;;;5085934;28;20028;-80
2023/01/03 06:32:15;;;;;;;5.65;4.47;;;0.00;99.90;;;;;;5112628;28;20024;-79
2023/01/03 06:35:18;;;;;;;7.88;4.43;;;0.00;99.90;;;;;;5112428;28;20031;-82
2023/01/03 06:38:03;;;;;;;7.18;4.80;;;0.00;99.90;;;;;;5100924;28;20024;-80
2023/01/03 06:41:06;;;;;;;10.75;4.95;;;0.00;99.90;;;;;;5101214;27;20034;-80
2023/01/03 06:43:52;;;;;;;7.65;4.95;;;0.00;99.90;;;;;;5113001;28;20019;-82
2023/01/03 06:53:46;;;;;;;5.40;3.60;;;0.10;99.90;;;;;;5097642;28;20066;-82
2023/01/03 06:56:49;;;;;;;9.43;4.88;;;0.10;99.90;;;;;;5092104;28;20027;-80
2023/01/03 06:59:16;;;;;;;7.55;5.60;;;0.10;99.90;;;;;;5091166;28;20030;-80
2023/01/03 07:02:19;;;;;;;9.52;5.28;;;0.10;99.90;;;;;;5112081;28;20024;-80
2023/01/03 07:05:22;;;;;;;7.05;5.05;;;0.10;99.90;;;;;;5085292;28;20469;-81
2023/01/03 07:08:28;;;;;;;7.43;4.65;;;0.20;99.90;;;;;;5102854;28;20020;-81
2023/01/03 07:11:31;;;;;;;15.32;6.75;;;0.20;99.90;;;;;;5088427;28;20060;-80
2023/01/03 07:14:34;;;;;;;7.68;5.25;;;0.20;99.90;;;;;;5112545;28;20047;-80
2023/01/03 07:17:18;;;;;;;12.30;5.88;;;0.20;99.90;;;;;;5111863;28;20552;-81
2023/01/03 07:20:03;;;;;;;9.00;5.18;;;0.20;99.90;;;;;;5112089;28;20031;-80
2023/01/03 07:22:47;;;;;;;9.88;6.15;;;0.20;99.90;;;;;;5112120;28;20024;-80
2023/01/03 07:25:50;;;;;;;11.85;6.80;;;0.20;99.90;;;;;;5111965;28;20038;-80
2023/01/03 07:28:53;;;;;;;10.85;6.88;;;0.30;99.90;;;;;;5112012;28;20036;-82
2023/01/03 07:31:37;;;;;;;8.63;6.63;;;0.30;99.90;;;;;;5079141;28;20032;-80
2023/01/03 07:34:22;;;;;;;12.30;6.93;;;0.30;99.90;;;;;;5109603;28;20020;-81
2023/01/03 07:37:25;;;;;;;12.20;7.28;;;0.30;99.90;;;;;;5111958;28;20031;-81
2023/01/03 07:40:28;;;;;;;11.25;6.70;;;0.30;99.90;;;;;;5112108;28;20032;-82
2023/01/03 07:46:34;;;;;;;11.75;8.05;;;0.30;99.90;;;;;;5112554;28;20499;-80
2023/01/03 07:49:37;;;;;;;10.57;8.15;;;0.30;99.90;;;;;;5097946;28;20389;-80
2023/01/03 07:52:40;;;;;;;9.13;7.07;;;0.30;99.90;;;;;;5087641;28;20096;-80
2023/01/03 07:55:46;;;;;;;10.38;7.68;;;0.30;99.90;;;;;;5108295;27;20077;-82
2023/01/03 07:58:50;;;;;;;10.98;7.15;;;0.30;99.90;;;;;;5112610;28;20039;-81
2023/01/03 08:01:54;;;;;;;11.10;7.00;;;0.30;99.90;;;;;;5100958;28;20019;-81
2023/01/03 08:04:57;;;;;;;7.88;6.03;;;0.30;99.90;;;;;;5101350;28;20089;-80
2023/01/03 08:08:00;;;;;;;7.35;6.05;;;0.30;99.90;;;;;;5091855;28;20024;-80
2023/01/03 08:14:25;;;;;;;8.45;5.95;;;0.30;99.90;;;;;;5116194;28;20077;-80
2023/01/03 08:17:31;;;;;;;8.68;5.82;;;0.30;99.90;;;;;;5100092;28;20020;-81
2023/01/03 08:20:16;;;;;;;6.60;5.88;;;0.30;99.90;;;;;;5107199;28;20415;-82
2023/01/03 08:23:19;;;;;;;7.20;5.53;;;0.30;99.90;;;;;;5087196;28;20030;-82
2023/01/03 08:26:11;;;;;;;7.25;5.47;;;0.30;99.90;;;;;;5114651;28;20020;-81
2023/01/03 08:29:17;;;;;;;10.30;6.75;;;0.30;99.90;;;;;;5115224;28;20449;-80
2023/01/03 08:32:21;;;;;;;6.72;5.60;;;0.30;99.90;;;;;;5083883;28;20470;-81
2023/01/03 08:35:05;;;;;;;12.30;9.02;;;0.30;99.90;;;;;;5090703;28;20028;-80
2023/01/03 08:38:11;;;;;;;12.30;7.28;;;0.30;99.90;;;;;;5113631;28;20015;-80
2023/01/03 08:41:00;;;;;;;8.82;6.63;;;0.30;99.90;;;;;;5115005;28;20027;-81
2023/01/03 08:43:46;;;;;;;8.98;7.30;;;0.30;99.90;;;;;;5113464;28;20426;-81
2023/01/03 08:46:34;;;;;;;11.20;6.90;;;0.30;99.90;;;;;;5114358;28;20019;-80
2023/01/03 08:49:38;;;;;;;12.05;7.90;;;0.30;99.90;;;;;;5101321;28;20032;-81
2023/01/03 08:52:44;;;;;;;11.63;8.18;;;0.40;99.90;;;;;;5110834;27;20024;-80
2023/01/03 08:55:47;;;;;;;15.32;9.02;;;0.40;99.90;;;;;;5089890;28;20027;-80
2023/01/03 08:58:59;;;;;;;8.63;7.22;;;0.30;99.90;;;;;;5110824;28;20008;-82
2023/01/03 09:02:02;;;;;;;9.75;6.88;;;0.30;99.90;;;;;;5109225;28;20451;-82
2023/01/03 09:04:46;;;;;;;10.40;7.03;;;0.30;99.90;;;;;;5095876;28;20486;-83
2023/01/03 09:07:49;;;;;;;9.38;7.10;;;0.30;99.90;;;;;;5099697;28;20106;-82
2023/01/03 09:10:35;;;;;;;11.82;8.45;;;0.30;99.90;;;;;;5114119;28;20039;-81
2023/01/03 09:13:20;;;;;;;7.38;6.40;;;0.30;99.90;;;;;;5113377;28;20028;-81
2023/01/03 09:16:06;;;;;;;10.00;7.38;;;0.30;99.90;;;;;;5073428;28;20036;-81
2023/01/03 09:19:12;;;;;;;11.05;7.45;;;0.30;99.90;;;;;;5102900;28;20103;-82
2023/01/03 09:22:15;;;;;;;8.93;6.57;;;0.30;99.90;;;;;;5093584;28;20028;-81
2023/01/03 09:25:18;;;;;;;9.55;6.82;;;0.30;99.90;;;;;;5108498;27;20069;-81
2023/01/03 09:28:04;;;;;;;9.57;7.40;;;0.30;99.90;;;;;;5087570;28;20058;-81
2023/01/03 09:31:07;;;;;;;11.02;8.30;;;0.40;99.90;;;;;;5115130;28;20043;-81
2023/01/03 09:34:13;;;;;;;13.23;7.97;;;0.30;99.90;;;;;;5113655;28;20362;-80
2023/01/03 09:37:19;;;;;;;10.23;7.38;;;0.40;99.90;;;;;;5093618;28;20028;-80
2023/01/03 09:40:23;;;;;;;14.75;7.50;;;0.30;99.90;;;;;;5088944;28;20032;-81
2023/01/03 09:43:17;;;;;;;14.57;9.20;;;0.30;99.90;;;;;;5099233;28;20509;-79
2023/01/03 09:46:20;;;;;;;13.05;8.93;;;0.30;99.90;;;;;;5112208;28;20394;-79
2023/01/03 09:48:50;;;;;;;11.55;8.18;;;0.40;99.90;;;;;;5105217;28;20035;-81
2023/01/03 10:04:26;;;;;;;12.27;9.38;;;0.30;99.90;;;;;;5088900;28;20019;-79
2023/01/03 10:07:29;;;;;;;11.98;9.65;;;0.30;99.90;;;;;;5095091;28;20020;-79
2023/01/03 10:10:43;;;;;;;14.38;9.80;;;0.30;99.90;;;;;;5112102;28;20163;-81
2023/01/03 10:13:30;;;;;;;9.75;8.55;;;0.30;99.90;;;;;;5093354;28;20484;-81
2023/01/03 10:16:09;;;;;;;;;;;0.30;99.90;;;;;;5080021;28;20482;-79
2023/01/03 10:19:02;;;;;;;12.07;9.35;;;0.40;99.90;;;;;;5107882;28;19908;-82
2023/01/03 10:22:05;;;;;;;13.23;10.20;;;0.30;99.90;;;;;;5112687;28;20015;-80
2023/01/03 10:28:24;;;;;;;13.85;9.43;;;0.40;99.90;;;;;;5088792;28;20054;-81
2023/01/03 10:31:27;;;;;;;12.93;9.80;;;0.40;99.90;;;;;;5112556;28;20035;-80
2023/01/03 10:34:31;;;;;;;20.20;10.10;;;0.40;99.90;;;;;;5096070;28;20102;-80
2023/01/03 10:37:46;;;;;;;15.65;10.00;;;0.40;99.90;;;;;;5099104;28;20023;-83
2023/01/03 10:40:33;;;;;;;14.45;9.85;;;0.40;99.90;;;;;;5112310;28;20065;-80
2023/01/03 10:43:17;;;;;;;;;;;0.40;99.90;;;;;;5088584;28;20035;-80
2023/01/03 10:46:20;;;;;;;12.95;8.63;;;0.40;99.90;;;;;;5112244;28;19929;-79
2023/01/03 10:49:06;;;;;;;16.42;9.40;;;0.40;99.90;;;;;;5112498;28;20084;-80
2023/01/03 10:52:09;;;;;;;13.27;8.80;;;0.30;99.90;;;;;;5071494;28;20029;-81
2023/01/03 10:55:12;;;;;;;13.90;9.60;;;0.30;99.90;;;;;;5111203;28;20020;-79
2023/01/03 10:58:15;;;;;;;18.67;10.75;;;0.20;99.90;;;;;;5112004;28;20368;-82
2023/01/03 11:01:18;;;;;;;15.77;10.15;;;0.20;99.90;;;;;;5105928;28;20364;-83
2023/01/03 11:04:24;;;;;;;16.17;9.48;;;0.20;99.90;;;;;;5084276;28;20028;-82
2023/01/03 11:07:11;;;;;;;17.77;10.57;;;0.20;99.90;;;;;;5107135;28;20106;-81
2023/01/03 11:10:14;;;;;;;16.38;10.02;;;0.20;99.90;;;;;;5111938;28;20464;-82
2023/01/03 11:13:17;;;;;;;16.48;9.43;;;0.30;99.90;;;;;;5081297;28;20102;-82
2023/01/03 11:16:20;;;;;;;16.75;10.65;;;0.20;99.90;;;;;;5111591;28;20094;-83
2023/01/03 11:19:23;;;;;;;21.83;10.85;;;0.30;99.90;;;;;;5111905;28;20037;-82
2023/01/03 11:22:26;;;;;;;20.17;11.05;;;0.20;99.90;;;;;;5112112;28;20024;-82
2023/01/03 11:25:29;;;;;;;21.88;13.40;;;0.30;99.90;;;;;;5093675;28;20366;-82
2023/01/03 11:28:32;;;;;;;21.63;11.95;;;0.30;99.90;;;;;;5092098;28;20058;-82
2023/01/03 11:31:23;;;;;;;17.58;11.30;;;0.30;99.90;;;;;;5103680;28;20521;-82
2023/01/03 11:34:26;;;;;;;18.55;10.57;;;0.30;99.90;;;;;;5105328;28;20020;-81
2023/01/03 11:37:26;;;;;;;18.88;11.50;;;0.30;99.90;;;;;;5104287;28;20024;-82
2023/01/03 11:40:29;;;;;;;23.40;11.77;;;0.30;99.90;;;;;;5109460;28;20388;-81
2023/01/03 11:43:14;;;;;;;20.17;11.80;;;0.30;99.90;;;;;;5129271;28;20106;-81
2023/01/03 11:46:17;;;;;;;15.85;10.18;;;0.30;99.90;;;;;;5116204;28;20092;-82
2023/01/03 11:49:21;;;;;;;18.50;10.95;;;0.30;99.90;;;;;;5102725;28;20074;-81
2023/01/03 11:52:14;;;;;;;21.75;11.80;;;0.30;99.90;;;;;;5108230;27;20023;-82
2023/01/03 11:54:42;;;;;;;20.48;12.05;;;0.40;99.90;;;;;;5116412;28;20400;-81
2023/01/03 11:57:19;;;;;;;19.35;11.80;;;0.30;99.90;;;;;;5120765;28;20466;-81
2023/01/03 12:00:01;;;;;;;22.77;13.53;;;0.40;99.90;;;;;;5093758;28;20486;-81
2023/01/03 12:02:44;;;;;;;22.30;13.63;;;0.40;99.90;;;;;;5100721;28;20590;-81
2023/01/03 12:05:34;;;;;;;20.05;12.55;;;0.40;99.90;;;;;;5099768;28;20072;-82
2023/01/03 12:08:18;;;;;;;24.02;13.07;;;0.40;99.90;;;;;;5115438;28;20019;-82
2023/01/03 12:11:05;;;;;;;26.35;13.57;;;0.40;99.90;;;;;;5115349;28;20036;-82
2023/01/03 12:14:15;;;;;;;23.63;13.60;;;0.40;99.90;;;;;;5113865;28;20047;-82
2023/01/03 12:16:51;;;;;;;24.00;13.70;;;0.50;99.90;;;;;;5055268;28;20490;-82
2023/01/03 12:19:17;;;;;;;25.45;14.38;;;0.50;99.90;;;;;;5088261;28;20038;-82
2023/01/03 12:21:57;;;;;;;27.23;14.35;;;0.50;99.90;;;;;;5115878;28;20028;-83
2023/01/03 12:24:40;;;;;;;24.83;14.15;;;0.60;99.90;;;;;;5115131;28;20016;-84
2023/01/03 12:27:37;;;;;;;24.75;14.15;;;0.60;99.90;;;;;;5115603;28;20047;-84
2023/01/03 12:30:21;;;;;;;;;;;0.60;99.90;;;;;;5094898;28;20048;-84
2023/01/03 12:32:53;;;;;;;31.63;16.65;;;0.70;99.90;;;;;;5102679;28;19904;-84
2023/01/03 12:35:38;;;;;;;28.08;15.30;;;0.60;99.90;;;;;;5103928;28;20369;-83
2023/01/03 12:38:05;;;;;;;28.85;15.70;;;0.60;99.90;;;;;;5102858;28;20031;-84
2023/01/03 12:41:05;;;;;;;36.30;23.52;;;0.70;99.90;;;;;;5114984;28;20495;-84
2023/01/03 12:43:52;;;;;;;28.67;16.27;;;0.70;99.90;;;;;;5095224;28;20034;-86
2023/01/03 12:46:30;;;;;;;28.60;15.02;;;0.80;99.90;;;;;;5110911;28;20121;-84
2023/01/03 12:49:04;;;;;;;38.90;18.77;;;0.90;99.90;;;;;;5098512;28;20020;-83
2023/01/03 12:51:35;;;;;;;26.50;14.85;;;0.90;99.90;;;;;;5114891;28;20032;-87
2023/01/03 12:54:32;;;;;;;23.08;15.55;;;1.00;99.90;;;;;;5114660;28;20094;-83
2023/01/03 12:57:19;;;;;;;23.95;15.70;;;1.10;99.90;;;;;;5103893;28;20383;-82
2023/01/03 13:00:19;;;;;;;25.92;13.55;;;1.10;99.90;;;;;;5101713;28;20496;-82
2023/01/03 13:02:54;;;;;;;29.60;15.38;;;1.20;99.90;;;;;;5113630;28;20578;-80
2023/01/03 13:05:43;;;;;;;25.60;13.65;;;1.20;99.90;;;;;;5098831;28;20100;-81
2023/01/03 13:08:21;;;;;;;29.85;15.60;;;1.30;99.90;;;;;;5114347;28;20024;-81
2023/01/03 13:10:48;;;;;;;;;;;1.40;99.90;;;;;;5088585;28;20053;-81
2023/01/03 13:13:16;;;;;;;;;;;1.40;99.90;;;;;;5100918;28;19956;-81
2023/01/03 13:15:42;;;;;;;23.33;13.85;;;1.50;99.90;;;;;;5102575;28;19911;-81
2023/01/03 13:18:20;;;;;;;24.60;14.68;;;1.50;99.90;;;;;;5097607;28;20336;-81
2023/01/03 13:20:46;;;;;;;28.75;14.85;;;1.60;99.90;;;;;;5114916;28;20023;-82
2023/01/03 13:23:32;;;;;;;20.20;12.23;;;1.70;99.90;;;;;;5114963;28;20024;-81
2023/01/03 13:26:25;;;;;;;18.77;11.60;;;1.80;99.90;;;;;;5117469;28;20121;-80
2023/01/03 13:29:12;;;;;;;21.63;13.13;;;1.90;99.90;;;;;;5120485;28;20016;-80
2023/01/03 13:31:39;;;;;;;21.90;14.73;;;2.00;99.90;;;;;;5113252;28;20023;-80
2023/01/03 13:34:31;;;;;;;19.15;10.88;;;2.00;99.90;;;;;;5113681;28;20392;-81
2023/01/03 13:37:06;;;;;;;35.75;13.48;;;2.10;99.90;;;;;;5113684;28;20096;-80
2023/01/03 13:39:46;;;;;;;19.73;11.75;;;2.30;99.90;;;;;;5113418;28;20016;-81
2023/01/03 13:42:29;;;;;;;19.50;12.32;;;2.40;99.90;;;;;;5113620;28;20067;-82
2023/01/03 13:45:17;;;;;;;16.27;11.00;;;2.50;99.90;;;;;;5079799;28;20075;-80
2023/01/03 13:47:51;;;;;;;17.77;11.10;;;2.60;99.90;;;;;;5109867;28;20092;-79
2023/01/03 13:50:31;;;;;;;16.73;11.23;;;2.70;99.90;;;;;;5113410;28;20027;-81
2023/01/03 13:53:11;;;;;;;18.70;10.85;;;2.80;99.90;;;;;;5113073;27;20093;-80
2023/01/03 13:55:46;;;;;;;13.75;10.05;;;2.90;99.90;;;;;;5101826;28;20104;-79
2023/01/03 13:58:36;;;;;;;16.05;8.52;;;2.90;99.90;;;;;;5104772;28;20023;-79
2023/01/03 14:01:14;;;;;;;15.60;8.15;;;2.90;99.90;;;;;;5078399;28;20029;-79
2023/01/03 14:04:21;;;;;;;12.15;7.78;;;3.00;99.90;;;;;;5090870;28;20040;-80
2023/01/03 14:07:08;;;;;;;11.95;7.10;;;3.10;99.90;;;;;;5108017;28;20020;-82
2023/01/03 14:09:42;;;;;;;;;;;3.20;99.90;;;;;;5114252;28;20067;-80
2023/01/03 14:12:46;;;;;;;16.20;8.98;;;3.20;99.90;;;;;;5112873;28;20031;-80
2023/01/03 14:15:19;;;;;;;15.35;10.05;;;3.30;99.90;;;;;;5028427;28;20033;-79
2023/01/03 14:17:55;;;;;;;16.25;10.48;;;3.30;99.90;;;;;;5018662;28;20037;-81
2023/01/03 14:20:25;;;;;;;16.73;11.25;;;3.40;99.90;;;;;;5013304;28;20037;-79
2023/01/03 14:22:52;;;;;;;15.93;10.38;;;3.40;99.90;;;;;;5030209;28;20068;-81
2023/01/03 14:25:50;;;;;;;14.88;10.35;;;3.40;99.90;;;;;;5029960;28;20538;-81
2023/01/03 14:28:24;;;;;;;14.50;10.10;;;3.40;99.90;;;;;;4997992;28;20076;-80
2023/01/03 14:31:01;;;;;;;13.20;9.98;;;3.40;99.90;;;;;;5029549;28;20044;-81
2023/01/03 14:33:39;;;;;;;16.88;9.57;;;3.40;99.90;;;;;;5029818;28;20026;-80
2023/01/03 14:36:16;;;;;;;13.30;9.10;;;3.40;99.90;;;;;;5029766;28;20398;-81
2023/01/03 14:39:00;;;;;;;;;;;3.50;99.90;;;;;;5030336;28;20411;-80
2023/01/03 14:41:31;;;;;;;13.35;8.27;;;3.50;99.90;;;;;;5013047;28;19909;-79
2023/01/03 14:43:59;;;;;;;12.07;9.13;;;3.50;99.90;;;;;;5029284;28;20386;-79
2023/01/03 14:46:28;;;;;;;14.85;8.23;;;3.40;99.90;;;;;;5029559;28;20528;-80
2023/01/03 14:48:57;;;;;;;9.85;7.90;;;3.40;99.90;;;;;;5012668;28;20032;-80
2023/01/03 14:51:23;;;;;;;14.25;7.97;;;3.40;99.90;;;;;;5063853;28;20156;-81
2023/01/03 14:53:51;;;;;;;11.82;7.40;;;3.50;99.90;;;;;;5104184;28;20469;-81
2023/01/03 14:56:22;;;;;;;10.60;8.25;;;3.50;99.90;;;;;;5109793;28;20016;-80
2023/01/03 14:58:48;;;;;;;13.52;8.63;;;3.60;99.90;;;;;;5102726;28;20513;-81
2023/01/03 15:01:14;;;;;;;12.68;8.10;;;3.60;99.90;;;;;;5104466;28;20051;-79
2023/01/03 15:03:45;;;;;;;13.98;8.70;;;3.70;99.90;;;;;;5091367;28;20392;-81
2023/01/03 15:06:27;;;;;;;12.50;8.82;;;3.70;99.90;;;;;;5103147;28;20015;-80
2023/01/03 15:08:58;;;;;;;15.30;8.95;;;3.70;99.90;;;;;;5111793;28;20049;-80
2023/01/03 15:11:54;;;;;;;13.02;9.82;;;3.70;99.90;;;;;;5112108;28;20031;-80
2023/01/03 15:14:25;;;;;;;14.55;8.60;;;3.80;99.90;;;;;;5112790;28;20464;-81
2023/01/03 15:16:59;;;;;;;15.80;9.13;;;3.80;99.90;;;;;;5113600;28;20027;-79
2023/01/03 15:19:27;;;;;;;12.93;9.32;;;3.80;99.90;;;;;;5110253;28;20051;-80
2023/01/03 15:22:21;;;;;;;13.88;9.13;;;3.80;99.90;;;;;;5111634;28;20089;-82
2023/01/03 15:25:07;;;;;;;12.25;9.90;;;3.80;99.90;;;;;;5111757;28;20026;-81
2023/01/03 15:27:36;;;;;;;11.77;8.43;;;3.80;99.90;;;;;;5111458;28;20560;-81
2023/01/03 15:30:10;;;;;;;11.98;8.15;;;3.80;99.90;;;;;;5111564;28;20042;-81
2023/01/03 15:32:58;;;;;;;13.02;8.15;;;3.80;99.90;;;;;;5106561;28;20146;-80
2023/01/03 15:35:39;;;;;;;10.02;7.22;;;3.80;99.90;;;;;;5106033;28;20053;-80
2023/01/03 15:38:31;;;;;;;12.00;8.07;;;3.80;99.90;;;;;;5079091;28;20370;-79